createdAt,value
2017-10-10T00:00:23.988Z,1.30
2017-10-10T00:02:51.503Z,1.83
2017-10-10T00:05:19.029Z,1.30
2017-10-10T00:07:46.554Z,1.63
2017-10-10T00:10:14.831Z,1.80
2017-10-10T00:12:42.355Z,2.10
2017-10-10T00:15:09.883Z,5.30
2017-10-10T00:17:37.407Z,1.37
2017-10-10T00:20:04.986Z,1.40
2017-10-10T00:22:32.511Z,1.37
2017-10-10T00:25:00.039Z,1.30
2017-10-10T00:27:28.363Z,1.30
2017-10-10T00:29:56.012Z,1.30
2017-10-10T00:32:23.552Z,1.40
2017-10-10T00:34:51.954Z,1.30
2017-10-10T00:37:19.490Z,1.37
2017-10-10T00:39:46.983Z,1.80
2017-10-10T00:42:14.521Z,2.90
2017-10-10T00:44:42.183Z,1.23
2017-10-10T00:47:09.710Z,1.40
2017-10-10T00:49:37.975Z,1.33
2017-10-10T00:52:06.281Z,1.50
2017-10-10T00:54:33.854Z,1.20
2017-10-10T00:57:01.516Z,3.20
2017-10-10T00:59:29.030Z,1.20
2017-10-10T01:01:56.611Z,1.47
2017-10-10T01:04:24.116Z,2.03
2017-10-10T01:06:51.701Z,1.43
2017-10-10T01:09:19.215Z,2.80
2017-10-10T01:11:46.732Z,2.00
2017-10-10T01:14:14.374Z,3.07
2017-10-10T01:16:42.053Z,2.37
2017-10-10T01:19:09.556Z,6.37
2017-10-10T01:21:37.065Z,1.20
2017-10-10T01:24:04.671Z,1.23
2017-10-10T01:26:32.186Z,1.10
2017-10-10T01:28:59.824Z,1.30
2017-10-10T01:31:27.327Z,1.30
2017-10-10T01:33:54.845Z,1.40
2017-10-10T01:36:22.347Z,1.63
2017-10-10T01:38:49.899Z,1.30
2017-10-10T01:41:17.418Z,1.27
2017-10-10T01:43:44.964Z,1.43
2017-10-10T01:46:12.472Z,1.40
2017-10-10T01:48:40.785Z,1.63
2017-10-10T01:51:08.338Z,0.97
2017-10-10T01:53:36.007Z,1.20
2017-10-10T01:56:03.515Z,1.30
2017-10-10T01:58:31.325Z,7.70
2017-10-10T02:00:58.991Z,1.60
2017-10-10T02:03:26.523Z,6.37
2017-10-10T02:05:54.036Z,1.10
2017-10-10T02:08:23.075Z,2.00
2017-10-10T02:10:50.664Z,2.60
2017-10-10T02:13:18.197Z,2.03
2017-10-10T02:15:45.959Z,2.90
2017-10-10T02:18:13.487Z,1.43
2017-10-10T02:20:41.764Z,1.87
2017-10-10T02:23:10.067Z,1.33
2017-10-10T02:25:37.628Z,1.30
2017-10-10T02:28:05.145Z,1.37
2017-10-10T02:30:33.422Z,1.30
2017-10-10T02:33:01.002Z,1.40
2017-10-10T02:35:28.511Z,1.37
2017-10-10T02:37:56.035Z,1.57
2017-10-10T02:40:23.531Z,1.43
2017-10-10T02:42:51.062Z,2.00
2017-10-10T02:45:18.569Z,2.80
2017-10-10T02:47:46.107Z,1.30
2017-10-10T02:50:13.631Z,1.30
2017-10-10T02:52:41.158Z,1.67
2017-10-10T02:55:08.711Z,1.23
2017-10-10T02:57:36.369Z,1.20
2017-10-10T03:00:03.872Z,3.77
2017-10-10T03:02:31.394Z,2.37
2017-10-10T03:04:58.952Z,1.30
2017-10-10T03:07:26.446Z,0.90
2017-10-10T03:09:54.716Z,1.30
2017-10-10T03:12:22.992Z,1.50
2017-10-10T03:14:51.275Z,1.83
2017-10-10T03:17:19.555Z,1.10
2017-10-10T03:19:47.819Z,1.33
2017-10-10T03:22:16.101Z,1.47
2017-10-10T03:24:43.667Z,1.50
2017-10-10T03:27:11.187Z,0.97
2017-10-10T03:29:39.463Z,1.40
2017-10-10T03:32:06.964Z,1.20
2017-10-10T03:34:34.483Z,1.23
2017-10-10T03:37:01.979Z,1.23
2017-10-10T03:39:30.355Z,1.30
2017-10-10T03:41:58.019Z,2.07
2017-10-10T03:44:25.539Z,3.13
2017-10-10T03:46:53.031Z,1.00
2017-10-10T03:49:20.557Z,3.17
2017-10-10T03:51:48.052Z,8.40
2017-10-10T03:54:15.570Z,1.13
2017-10-10T03:56:43.070Z,1.40
2017-10-10T03:59:10.592Z,1.67
2017-10-10T04:01:38.148Z,1.20
2017-10-10T04:04:05.811Z,1.20
2017-10-10T04:06:33.306Z,1.67
2017-10-10T04:09:00.827Z,1.37
2017-10-10T04:11:28.322Z,1.30
2017-10-10T04:13:57.483Z,2.73
2017-10-10T04:16:25.116Z,1.10
2017-10-10T04:18:52.655Z,1.23
2017-10-10T04:21:20.915Z,1.00
2017-10-10T04:23:49.320Z,1.23
2017-10-10T04:26:16.814Z,1.27
2017-10-10T04:28:44.342Z,1.30
2017-10-10T04:31:11.867Z,1.10
2017-10-10T04:33:39.563Z,1.23
2017-10-10T04:36:07.055Z,1.57
2017-10-10T04:38:34.575Z,1.00
2017-10-10T04:41:02.140Z,1.13
2017-10-10T04:43:29.663Z,1.30
2017-10-10T04:45:57.427Z,1.30
2017-10-10T04:48:24.955Z,2.40
2017-10-10T04:50:53.218Z,1.63
2017-10-10T04:53:20.743Z,1.37
2017-10-10T04:55:48.239Z,5.20
2017-10-10T04:58:15.762Z,1.30
2017-10-10T05:00:43.398Z,1.10
2017-10-10T05:03:10.955Z,7.33
2017-10-10T05:05:38.470Z,2.80
2017-10-10T05:08:06.147Z,2.70
2017-10-10T05:10:33.766Z,3.33
2017-10-10T05:13:01.407Z,1.60
2017-10-10T05:15:28.943Z,11.43
2017-10-10T05:17:56.485Z,21.43
2017-10-10T05:20:23.995Z,27.30
2017-10-10T05:22:51.693Z,11.47
2017-10-10T05:25:19.200Z,14.37
2017-10-10T05:27:46.696Z,12.70
2017-10-10T05:30:14.255Z,11.97
2017-10-10T05:32:41.839Z,6.33
2017-10-10T05:35:09.352Z,4.70
2017-10-10T05:37:37.037Z,13.60
2017-10-10T05:40:04.679Z,6.67
2017-10-10T05:42:32.183Z,14.33
2017-10-10T05:44:59.687Z,15.40
2017-10-10T05:47:27.250Z,6.60
2017-10-10T05:49:54.768Z,14.77
2017-10-10T05:52:22.588Z,8.10
2017-10-10T05:54:50.248Z,5.80
2017-10-10T05:57:17.755Z,7.60
2017-10-10T05:59:46.165Z,3.43
2017-10-10T06:02:13.840Z,5.90
2017-10-10T06:04:41.490Z,10.07
2017-10-10T06:07:09.059Z,11.03
2017-10-10T06:09:36.635Z,19.90
2017-10-10T06:12:04.132Z,19.27
2017-10-10T06:14:32.536Z,5.43
2017-10-10T06:17:00.048Z,9.53
2017-10-10T06:19:28.360Z,7.43
2017-10-10T06:21:55.927Z,9.30
2017-10-10T06:24:23.560Z,5.50
2017-10-10T06:26:51.060Z,8.80
2017-10-10T06:29:18.600Z,13.23
2017-10-10T06:31:46.092Z,4.40
2017-10-10T06:34:13.643Z,10.70
2017-10-10T06:36:41.147Z,7.90
2017-10-10T06:39:08.719Z,6.37
2017-10-10T06:41:36.230Z,7.87
2017-10-10T06:44:04.711Z,11.13
2017-10-10T06:46:33.114Z,11.93
2017-10-10T06:49:00.623Z,6.87
2017-10-10T06:51:28.134Z,5.50
2017-10-10T06:53:55.659Z,5.87
2017-10-10T06:56:23.167Z,4.60
2017-10-10T06:58:50.695Z,6.40
2017-10-10T07:01:18.243Z,2.43
2017-10-10T07:03:45.771Z,4.57
2017-10-10T07:06:14.047Z,4.00
2017-10-10T07:08:42.316Z,6.00
2017-10-10T07:11:10.602Z,8.63
2017-10-10T07:13:38.874Z,3.07
2017-10-10T07:16:07.147Z,3.90
2017-10-10T07:18:35.415Z,7.30
2017-10-10T07:21:03.694Z,11.07
2017-10-10T07:23:32.111Z,2.20
2017-10-10T07:25:59.742Z,9.03
2017-10-10T07:28:27.263Z,3.57
2017-10-10T07:30:54.766Z,6.67
2017-10-10T07:33:22.351Z,3.97
2017-10-10T07:35:49.971Z,3.50
2017-10-10T07:38:17.475Z,4.47
2017-10-10T07:40:45.104Z,3.73
2017-10-10T07:43:12.623Z,6.53
2017-10-10T07:45:41.006Z,3.43
2017-10-10T07:48:08.524Z,4.70
2017-10-10T07:50:36.026Z,3.17
2017-10-10T07:53:03.551Z,2.63
2017-10-10T07:55:31.071Z,6.37
2017-10-10T07:57:58.571Z,5.57
2017-10-10T08:00:26.842Z,7.73
2017-10-10T08:02:55.115Z,3.30
2017-10-10T08:05:23.387Z,3.63
2017-10-10T08:07:51.660Z,5.13
2017-10-10T08:10:19.367Z,2.93
2017-10-10T08:12:46.900Z,3.53
2017-10-10T08:15:14.415Z,6.20
2017-10-10T08:17:41.932Z,2.57
2017-10-10T08:20:09.436Z,1.93
2017-10-10T08:22:36.949Z,4.43
2017-10-10T08:25:04.476Z,2.83
2017-10-10T08:27:31.983Z,3.90
2017-10-10T08:29:59.493Z,4.80
2017-10-10T08:32:27.160Z,9.40
2017-10-10T08:34:54.699Z,1.80
2017-10-10T08:37:22.219Z,8.43
2017-10-10T08:39:49.747Z,2.93
2017-10-10T08:42:17.264Z,4.93
2017-10-10T08:44:44.798Z,3.20
2017-10-10T08:47:12.310Z,3.67
2017-10-10T08:49:39.844Z,3.90
2017-10-10T08:52:07.400Z,3.13
2017-10-10T08:54:34.928Z,1.80
2017-10-10T08:57:03.199Z,4.43
2017-10-10T08:59:31.484Z,1.27
2017-10-10T09:01:59.267Z,3.20
2017-10-10T09:04:26.800Z,6.27
2017-10-10T09:06:54.371Z,2.43
2017-10-10T09:09:21.986Z,3.73
2017-10-10T09:11:49.507Z,1.47
2017-10-10T09:14:17.188Z,3.10
2017-10-10T09:16:44.703Z,1.67
2017-10-10T09:19:12.491Z,2.70
2017-10-10T09:21:40.013Z,1.43
2017-10-10T09:24:07.776Z,4.70
2017-10-10T09:26:35.631Z,2.20
2017-10-10T09:29:03.212Z,2.10
2017-10-10T09:31:30.775Z,3.53
2017-10-10T09:33:58.424Z,5.17
2017-10-10T09:36:25.962Z,1.50
2017-10-10T09:38:53.560Z,2.80
2017-10-10T09:41:21.171Z,3.27
2017-10-10T09:43:48.830Z,3.90
2017-10-10T09:46:16.336Z,3.73
2017-10-10T09:48:43.828Z,4.70
2017-10-10T09:51:12.136Z,5.60
2017-10-10T09:53:39.688Z,2.73
2017-10-10T09:56:07.191Z,6.23
2017-10-10T09:58:34.783Z,3.83
2017-10-10T10:01:02.296Z,5.27
2017-10-10T10:03:29.907Z,7.80
2017-10-10T10:05:57.569Z,3.70
2017-10-10T10:08:25.074Z,4.70
2017-10-10T10:10:52.595Z,3.63
2017-10-10T10:13:20.144Z,3.33
2017-10-10T10:15:47.650Z,4.53
2017-10-10T10:18:15.926Z,5.93
2017-10-10T10:20:44.206Z,3.93
2017-10-10T10:23:12.478Z,2.70
2017-10-10T10:25:40.758Z,3.57
2017-10-10T10:28:09.034Z,5.00
2017-10-10T10:30:36.551Z,4.70
2017-10-10T10:33:04.083Z,8.83
2017-10-10T10:35:31.595Z,3.80
2017-10-10T10:37:59.204Z,4.53
2017-10-10T10:40:26.699Z,8.17
2017-10-10T10:42:55.315Z,6.13
2017-10-10T10:45:22.835Z,5.70
2017-10-10T10:47:51.118Z,5.87
2017-10-10T10:50:18.742Z,7.50
2017-10-10T10:52:46.263Z,4.80
2017-10-10T10:55:13.925Z,5.33
2017-10-10T10:57:41.423Z,4.20
2017-10-10T11:00:08.945Z,5.70
2017-10-10T11:02:36.571Z,5.73
2017-10-10T11:05:04.104Z,3.07
2017-10-10T11:07:32.379Z,6.60
2017-10-10T11:10:00.790Z,6.20
2017-10-10T11:12:28.287Z,5.03
2017-10-10T11:14:55.801Z,7.57
2017-10-10T11:17:23.307Z,5.23
2017-10-10T11:19:52.359Z,5.30
2017-10-10T11:22:19.863Z,4.40
2017-10-10T11:24:47.411Z,4.13
2017-10-10T11:27:15.003Z,8.53
2017-10-10T11:29:42.522Z,4.80
2017-10-10T11:32:10.027Z,4.63
2017-10-10T11:34:37.539Z,3.30
2017-10-10T11:37:05.243Z,7.73
2017-10-10T11:39:32.747Z,2.90
2017-10-10T11:42:00.260Z,4.20
2017-10-10T11:44:27.777Z,4.30
2017-10-10T11:46:55.451Z,4.07
2017-10-10T11:49:22.948Z,8.47
2017-10-10T11:51:50.444Z,5.07
2017-10-10T11:54:18.712Z,3.10
2017-10-10T11:56:46.975Z,6.43
2017-10-10T11:59:14.476Z,5.50
2017-10-10T12:01:42.036Z,3.13
2017-10-10T12:04:09.551Z,2.90
2017-10-10T12:06:37.947Z,3.60
2017-10-10T12:09:05.625Z,5.60
2017-10-10T12:11:33.127Z,4.23
2017-10-10T12:14:00.641Z,3.47
2017-10-10T12:16:28.171Z,3.30
2017-10-10T12:18:55.831Z,3.33
2017-10-10T12:21:23.332Z,6.10
2017-10-10T12:23:50.827Z,3.80
2017-10-10T12:26:19.224Z,3.03
2017-10-10T12:28:46.891Z,4.33
2017-10-10T12:31:14.392Z,3.67
2017-10-10T12:33:41.903Z,3.70
2017-10-10T12:36:09.403Z,5.30
2017-10-10T12:38:36.895Z,3.80
2017-10-10T12:41:04.407Z,3.03
2017-10-10T12:43:32.011Z,2.60
2017-10-10T12:45:59.526Z,4.20
2017-10-10T12:48:27.035Z,3.23
2017-10-10T12:50:54.537Z,4.80
2017-10-10T12:53:22.048Z,3.73
2017-10-10T12:55:49.547Z,4.90
2017-10-10T12:58:17.056Z,3.10
2017-10-10T13:00:44.867Z,4.50
2017-10-10T13:03:12.491Z,4.47
2017-10-10T13:05:40.027Z,3.13
2017-10-10T13:08:07.584Z,2.60
2017-10-10T13:10:35.134Z,3.30
2017-10-10T13:13:02.626Z,8.33
2017-10-10T13:15:30.180Z,5.43
2017-10-10T13:17:57.674Z,3.10
2017-10-10T13:20:26.137Z,5.77
2017-10-10T13:22:53.683Z,4.20
2017-10-10T13:25:21.211Z,4.27
2017-10-10T13:27:48.699Z,7.00
2017-10-10T13:30:16.214Z,3.97
2017-10-10T13:32:43.964Z,3.93
2017-10-10T13:35:11.466Z,9.43
2017-10-10T13:37:38.964Z,6.47
2017-10-10T13:40:06.538Z,3.40
2017-10-10T13:42:34.179Z,3.10
2017-10-10T13:45:01.680Z,3.23
2017-10-10T13:47:29.308Z,3.53
2017-10-10T13:49:56.961Z,4.70
2017-10-10T13:52:24.463Z,3.70
2017-10-10T13:54:52.059Z,2.47
2017-10-10T13:57:19.569Z,2.87
2017-10-10T13:59:47.071Z,4.10
2017-10-10T14:02:14.575Z,5.20
2017-10-10T14:04:42.094Z,10.20
2017-10-10T14:07:09.752Z,3.13
2017-10-10T14:09:37.252Z,5.40
2017-10-10T14:12:04.756Z,2.63
2017-10-10T14:14:32.260Z,3.27
2017-10-10T14:16:59.754Z,2.83
2017-10-10T14:19:27.274Z,5.47
2017-10-10T14:21:54.768Z,3.67
2017-10-10T14:24:22.356Z,3.43
2017-10-10T14:26:49.867Z,3.50
2017-10-10T14:29:18.135Z,5.80
2017-10-10T14:31:45.744Z,6.23
2017-10-10T14:34:13.251Z,6.27
2017-10-10T14:36:41.520Z,3.73
2017-10-10T14:39:09.880Z,7.03
2017-10-10T14:41:37.386Z,6.47
2017-10-10T14:44:04.883Z,6.73
2017-10-10T14:46:32.587Z,6.37
2017-10-10T14:49:00.159Z,6.07
2017-10-10T14:51:27.665Z,6.23
2017-10-10T14:53:55.178Z,7.37
2017-10-10T14:56:22.921Z,5.37
2017-10-10T14:58:50.576Z,10.70
2017-10-10T15:01:18.107Z,9.20
2017-10-10T15:03:46.487Z,6.60
2017-10-10T15:06:13.986Z,6.97
2017-10-10T15:08:41.607Z,8.07
2017-10-10T15:11:09.135Z,7.97
2017-10-10T15:13:36.751Z,7.60
2017-10-10T15:16:04.246Z,7.53
2017-10-10T15:18:31.743Z,7.67
2017-10-10T15:20:59.546Z,9.53
2017-10-10T15:23:27.056Z,12.00
2017-10-10T15:25:54.663Z,12.07
2017-10-10T15:28:22.172Z,10.33
2017-10-10T15:30:49.730Z,10.50
2017-10-10T15:33:17.230Z,10.83
2017-10-10T15:35:44.727Z,11.07
2017-10-10T15:38:12.240Z,9.23
2017-10-10T15:40:39.775Z,7.40
2017-10-10T15:43:07.287Z,10.20
2017-10-10T15:45:35.563Z,9.37
2017-10-10T15:48:03.067Z,12.07
2017-10-10T15:50:30.615Z,9.40
2017-10-10T15:52:58.241Z,16.17
2017-10-10T15:55:25.748Z,8.70
2017-10-10T15:57:53.258Z,9.70
2017-10-10T16:00:20.764Z,9.10
2017-10-10T16:02:48.315Z,11.10
2017-10-10T16:05:15.810Z,11.33
2017-10-10T16:07:43.302Z,12.90
2017-10-10T16:10:10.863Z,16.87
2017-10-10T16:12:38.513Z,8.20
2017-10-10T16:15:06.016Z,13.07
2017-10-10T16:17:33.530Z,9.30
2017-10-10T16:20:01.040Z,12.50
2017-10-10T16:22:28.719Z,11.27
2017-10-10T16:24:56.237Z,12.57
2017-10-10T16:27:23.745Z,12.43
2017-10-10T16:29:51.267Z,10.73
2017-10-10T16:32:18.787Z,12.17
2017-10-10T16:34:46.287Z,12.57
2017-10-10T16:37:13.874Z,10.13
2017-10-10T16:39:41.388Z,11.97
2017-10-10T16:42:09.668Z,10.43
2017-10-10T16:44:37.941Z,15.93
2017-10-10T16:47:06.207Z,9.37
2017-10-10T16:49:33.752Z,13.57
2017-10-10T16:52:01.456Z,13.90
2017-10-10T16:54:29.010Z,12.87
2017-10-10T16:56:56.512Z,11.50
2017-10-10T16:59:24.031Z,13.67
2017-10-10T17:01:51.545Z,12.73
2017-10-10T17:04:19.825Z,12.63
2017-10-10T17:06:48.211Z,11.10
2017-10-10T17:09:15.732Z,13.80
2017-10-10T17:11:43.235Z,15.53
2017-10-10T17:14:10.753Z,11.73
2017-10-10T17:16:38.272Z,13.53
2017-10-10T17:19:05.776Z,14.47
2017-10-10T17:21:34.043Z,10.67
2017-10-10T17:24:01.565Z,11.70
2017-10-10T17:26:29.084Z,12.40
2017-10-10T17:28:56.591Z,11.97
2017-10-10T17:31:24.397Z,9.93
2017-10-10T17:33:51.907Z,9.60
2017-10-10T17:36:20.180Z,14.20
2017-10-10T17:38:47.818Z,18.37
2017-10-10T17:41:15.522Z,13.30
2017-10-10T17:43:43.138Z,12.93
2017-10-10T17:46:10.665Z,10.10
2017-10-10T17:48:38.231Z,10.83
2017-10-10T17:51:05.750Z,15.47
2017-10-10T17:53:33.270Z,12.10
2017-10-10T17:56:00.767Z,9.83
2017-10-10T17:58:28.283Z,12.37
2017-10-10T18:00:55.791Z,11.67
2017-10-10T18:03:23.310Z,13.77
2017-10-10T18:05:51.011Z,15.13
2017-10-10T18:08:18.666Z,13.33
2017-10-10T18:10:46.190Z,12.67
2017-10-10T18:13:13.815Z,12.30
2017-10-10T18:15:41.440Z,11.97
2017-10-10T18:18:08.971Z,12.40
2017-10-10T18:20:36.566Z,15.80
2017-10-10T18:23:04.124Z,14.70
2017-10-10T18:25:31.642Z,11.17
2017-10-10T18:27:59.355Z,13.60
2017-10-10T18:30:26.862Z,15.47
2017-10-10T18:32:54.387Z,8.30
2017-10-10T18:35:21.890Z,12.00
2017-10-10T18:37:49.411Z,13.93
2017-10-10T18:40:17.691Z,11.97
2017-10-10T18:42:45.274Z,13.70
2017-10-10T18:45:12.974Z,13.47
2017-10-10T18:47:40.598Z,12.87
2017-10-10T18:50:08.257Z,14.67
2017-10-10T18:52:35.917Z,10.40
2017-10-10T18:55:03.427Z,11.00
2017-10-10T18:57:31.842Z,9.67
2017-10-10T18:59:59.364Z,10.27
2017-10-10T19:02:27.766Z,12.57
2017-10-10T19:04:55.267Z,15.80
2017-10-10T19:07:22.887Z,13.60
2017-10-10T19:09:50.543Z,13.53
2017-10-10T19:12:18.087Z,10.37
2017-10-10T19:14:45.602Z,18.13
2017-10-10T19:17:14.006Z,9.70
2017-10-10T19:19:42.331Z,13.30
2017-10-10T19:22:10.065Z,10.53
2017-10-10T19:24:37.837Z,12.30
2017-10-10T19:27:05.511Z,8.93
2017-10-10T19:29:33.094Z,9.33
2017-10-10T19:32:00.686Z,13.63
2017-10-10T19:34:28.187Z,11.63
2017-10-10T19:36:55.710Z,11.67
2017-10-10T19:39:23.278Z,9.30
2017-10-10T19:41:50.797Z,13.40
2017-10-10T19:44:19.138Z,14.50
2017-10-10T19:46:46.699Z,11.20
2017-10-10T19:49:14.318Z,11.97
2017-10-10T19:51:41.827Z,8.83
2017-10-10T19:54:09.366Z,11.60
2017-10-10T19:56:37.137Z,11.27
2017-10-10T19:59:04.735Z,9.23
2017-10-10T20:01:32.301Z,9.97
2017-10-10T20:03:59.887Z,10.10
2017-10-10T20:06:27.941Z,10.00
2017-10-10T20:08:55.485Z,10.43
2017-10-10T20:11:23.056Z,9.67
2017-10-10T20:13:50.634Z,9.90
2017-10-10T20:16:18.203Z,10.40
2017-10-10T20:18:45.787Z,9.83
2017-10-10T20:21:13.365Z,9.67
2017-10-10T20:23:40.948Z,12.43
2017-10-10T20:26:08.443Z,10.83
2017-10-10T20:28:36.747Z,13.60
2017-10-10T20:31:04.345Z,9.70
2017-10-10T20:33:31.868Z,10.33
2017-10-10T20:35:59.401Z,11.37
2017-10-10T20:38:26.951Z,10.57
2017-10-10T20:40:54.521Z,10.50
2017-10-10T20:43:22.110Z,13.00
2017-10-10T20:45:49.841Z,10.97
2017-10-10T20:48:17.368Z,10.43
2017-10-10T20:50:44.887Z,9.87
2017-10-10T20:53:12.415Z,13.63
2017-10-10T20:55:40.072Z,9.70
2017-10-10T20:58:07.611Z,9.33
2017-10-10T21:00:35.190Z,10.83
2017-10-10T21:03:02.728Z,13.10
2017-10-10T21:05:30.320Z,10.93
2017-10-10T21:07:57.846Z,10.00
2017-10-10T21:10:25.427Z,8.30
2017-10-10T21:12:52.964Z,12.10
2017-10-10T21:15:20.484Z,9.23
2017-10-10T21:17:48.174Z,9.40
2017-10-10T21:20:15.670Z,9.47
2017-10-10T21:22:43.195Z,8.77
2017-10-10T21:25:11.039Z,6.00
2017-10-10T21:27:38.658Z,8.53
2017-10-10T21:30:06.176Z,8.77
2017-10-10T21:32:33.707Z,10.40
2017-10-10T21:35:01.202Z,6.50
2017-10-10T21:37:28.722Z,8.60
2017-10-10T21:39:56.220Z,8.70
2017-10-10T21:42:25.273Z,10.23
2017-10-10T21:44:52.774Z,9.00
2017-10-10T21:47:21.903Z,9.10
2017-10-10T21:49:49.400Z,8.17
2017-10-10T21:52:17.043Z,10.30
2017-10-10T21:54:44.542Z,8.17
2017-10-10T21:57:12.064Z,10.60
2017-10-10T21:59:39.591Z,8.60
2017-10-10T22:02:07.157Z,8.60
2017-10-10T22:04:34.719Z,7.53
2017-10-10T22:07:02.227Z,9.40
2017-10-10T22:09:29.731Z,7.23
2017-10-10T22:11:57.232Z,10.10
2017-10-10T22:14:26.255Z,7.67
2017-10-10T22:16:53.845Z,9.60
2017-10-10T22:19:21.370Z,8.93
2017-10-10T22:21:48.934Z,8.00
2017-10-10T22:24:16.801Z,7.30
2017-10-10T22:26:44.316Z,7.00
2017-10-10T22:29:12.617Z,8.20
2017-10-10T22:31:40.119Z,7.27
2017-10-10T22:34:07.654Z,7.83
2017-10-10T22:36:35.169Z,7.07
2017-10-10T22:39:03.455Z,6.80
2017-10-10T22:41:31.010Z,6.00
2017-10-10T22:43:58.628Z,7.57
2017-10-10T22:46:26.147Z,11.83
2017-10-10T22:48:53.677Z,7.50
2017-10-10T22:51:21.244Z,6.80
2017-10-10T22:53:48.874Z,6.57
2017-10-10T22:56:16.380Z,5.93
2017-10-10T22:58:44.394Z,8.30
2017-10-10T23:01:11.890Z,7.10
2017-10-10T23:03:39.414Z,5.67
2017-10-10T23:06:07.691Z,6.30
2017-10-10T23:08:35.295Z,7.77
2017-10-10T23:11:02.923Z,7.20
2017-10-10T23:13:30.471Z,6.67
2017-10-10T23:15:57.976Z,6.30
2017-10-10T23:18:25.491Z,7.33
2017-10-10T23:20:53.003Z,10.23
2017-10-10T23:23:20.530Z,5.13
2017-10-10T23:25:48.074Z,5.50
2017-10-10T23:28:15.603Z,7.13
2017-10-10T23:30:43.387Z,8.57
2017-10-10T23:33:10.919Z,6.37
2017-10-10T23:35:38.515Z,6.10
2017-10-10T23:38:06.050Z,6.10
2017-10-10T23:40:33.551Z,8.83
2017-10-10T23:43:01.259Z,5.07
2017-10-10T23:45:28.755Z,8.33
2017-10-10T23:47:56.384Z,5.50
2017-10-10T23:50:23.892Z,6.90
2017-10-10T23:52:51.395Z,7.13
2017-10-10T23:55:19.011Z,8.23
2017-10-10T23:57:47.283Z,4.43
